createdAt,value
2023-01-20T00:00:10.373Z,647.00
2023-01-20T00:00:40.411Z,646.00
2023-01-20T00:01:10.372Z,645.00
2023-01-20T00:01:40.489Z,643.00
2023-01-20T00:02:10.608Z,643.00
2023-01-20T00:02:40.799Z,643.00
2023-01-20T00:03:10.849Z,644.00
2023-01-20T00:03:41.067Z,640.00
2023-01-20T00:04:10.951Z,640.00
2023-01-20T00:04:41.075Z,641.00
2023-01-20T00:05:11.774Z,639.00
2023-01-20T00:05:41.281Z,639.00
2023-01-20T00:06:11.399Z,638.00
2023-01-20T00:06:41.512Z,639.00
2023-01-20T00:07:11.520Z,638.00
2023-01-20T00:07:41.628Z,637.00
2023-01-20T00:08:11.745Z,639.00
2023-01-20T00:08:41.875Z,638.00
2023-01-20T00:09:11.965Z,636.00
2023-01-20T00:09:42.078Z,634.00
2023-01-20T00:10:12.226Z,638.00
2023-01-20T00:10:42.189Z,638.00
2023-01-20T00:11:12.311Z,637.00
2023-01-20T00:11:42.410Z,638.00
2023-01-20T00:12:12.523Z,640.00
2023-01-20T00:12:42.667Z,639.00
2023-01-20T00:13:12.651Z,638.00
2023-01-20T00:13:42.760Z,636.00
2023-01-20T00:14:12.874Z,635.00
2023-01-20T00:14:42.982Z,634.00
2023-01-20T00:15:13.345Z,633.00
2023-01-20T00:15:43.136Z,633.00
2023-01-20T00:16:13.221Z,631.00
2023-01-20T00:16:43.139Z,630.00
2023-01-20T00:17:13.100Z,632.00
2023-01-20T00:17:43.265Z,631.00
2023-01-20T00:18:13.267Z,632.00
2023-01-20T00:18:43.248Z,634.00
2023-01-20T00:19:13.377Z,634.00
2023-01-20T00:19:43.475Z,635.00
2023-01-20T00:20:13.567Z,634.00
2023-01-20T00:20:43.636Z,635.00
2023-01-20T00:21:13.710Z,633.00
2023-01-20T00:21:43.807Z,634.00
2023-01-20T00:22:13.858Z,635.00
2023-01-20T00:22:43.947Z,637.00
2023-01-20T00:23:14.020Z,638.00
2023-01-20T00:23:44.088Z,636.00
2023-01-20T00:24:14.188Z,636.00
2023-01-20T00:24:44.237Z,637.00
2023-01-20T00:25:14.690Z,637.00
2023-01-20T00:25:44.364Z,636.00
2023-01-20T00:26:14.432Z,635.00
2023-01-20T00:26:44.527Z,637.00
2023-01-20T00:27:14.582Z,635.00
2023-01-20T00:27:44.710Z,634.00
2023-01-20T00:28:14.658Z,634.00
2023-01-20T00:28:44.741Z,636.00
2023-01-20T00:29:14.813Z,635.00
2023-01-20T00:29:44.876Z,637.00
2023-01-20T00:30:15.005Z,637.00
2023-01-20T00:30:45.030Z,638.00
2023-01-20T00:31:15.012Z,635.00
2023-01-20T00:31:45.173Z,631.00
2023-01-20T00:32:15.160Z,633.00
2023-01-20T00:32:45.274Z,633.00
2023-01-20T00:33:15.391Z,633.00
2023-01-20T00:33:45.500Z,634.00
2023-01-20T00:34:15.626Z,634.00
2023-01-20T00:34:45.726Z,633.00
2023-01-20T00:35:15.858Z,629.00
2023-01-20T00:35:45.842Z,629.00
2023-01-20T00:36:15.962Z,629.00
2023-01-20T00:36:46.073Z,628.00
2023-01-20T00:37:16.186Z,629.00
2023-01-20T00:37:46.313Z,629.00
2023-01-20T00:38:16.302Z,630.00
2023-01-20T00:38:46.426Z,630.00
2023-01-20T00:39:16.547Z,627.00
2023-01-20T00:39:46.662Z,631.00
2023-01-20T00:40:16.754Z,631.00
2023-01-20T00:40:46.864Z,630.00
2023-01-20T00:41:16.978Z,626.00
2023-01-20T00:41:47.091Z,626.00
2023-01-20T00:42:17.204Z,625.00
2023-01-20T00:42:47.317Z,626.00
2023-01-20T00:43:17.332Z,626.00
2023-01-20T00:43:47.324Z,623.00
2023-01-20T00:44:17.433Z,622.00
2023-01-20T00:44:47.553Z,624.00
2023-01-20T00:45:17.667Z,623.00
2023-01-20T00:45:47.840Z,623.00
2023-01-20T00:46:17.932Z,626.00
2023-01-20T00:46:47.971Z,627.00
2023-01-20T00:47:17.938Z,625.00
2023-01-20T00:47:48.062Z,624.00
2023-01-20T00:48:18.162Z,627.00
2023-01-20T00:48:48.271Z,625.00
2023-01-20T00:49:18.387Z,625.00
2023-01-20T00:49:48.502Z,625.00
2023-01-20T00:50:18.611Z,625.00
2023-01-20T00:50:48.729Z,623.00
2023-01-20T00:51:18.843Z,623.00
2023-01-20T00:51:48.953Z,624.00
2023-01-20T00:52:19.063Z,625.00
2023-01-20T00:52:49.182Z,624.00
2023-01-20T00:53:19.296Z,624.00
2023-01-20T00:53:49.406Z,624.00
2023-01-20T00:54:19.550Z,623.00
2023-01-20T00:54:49.658Z,622.00
2023-01-20T00:55:19.747Z,621.00
2023-01-20T00:55:49.863Z,622.00
2023-01-20T00:56:19.977Z,622.00
2023-01-20T00:56:50.083Z,619.00
2023-01-20T00:57:20.208Z,618.00
2023-01-20T00:57:50.318Z,617.00
2023-01-20T00:58:20.432Z,618.00
2023-01-20T00:58:50.565Z,618.00
2023-01-20T00:59:20.653Z,619.00
2023-01-20T00:59:50.766Z,621.00
2023-01-20T01:00:20.927Z,619.00
2023-01-20T01:00:50.968Z,622.00
2023-01-20T01:01:21.071Z,624.00
2023-01-20T01:01:51.058Z,627.00
2023-01-20T01:02:21.022Z,627.00
2023-01-20T01:02:53.037Z,627.00
2023-01-20T01:03:21.104Z,626.00
2023-01-20T01:03:51.218Z,625.00
2023-01-20T01:04:21.325Z,626.00
2023-01-20T01:04:51.338Z,628.00
2023-01-20T01:05:21.450Z,627.00
2023-01-20T01:05:51.563Z,628.00
2023-01-20T01:06:21.672Z,626.00
2023-01-20T01:06:51.788Z,625.00
2023-01-20T01:07:21.895Z,625.00
2023-01-20T01:07:52.027Z,624.00
2023-01-20T01:08:22.030Z,624.00
2023-01-20T01:08:52.121Z,623.00
2023-01-20T01:09:22.233Z,623.00
2023-01-20T01:09:52.347Z,621.00
2023-01-20T01:10:22.483Z,622.00
2023-01-20T01:10:52.566Z,623.00
2023-01-20T01:11:22.691Z,622.00
2023-01-20T01:11:52.789Z,622.00
2023-01-20T01:12:22.785Z,622.00
2023-01-20T01:12:52.905Z,620.00
2023-01-20T01:13:23.011Z,618.00
2023-01-20T01:13:53.123Z,618.00
2023-01-20T01:14:23.240Z,619.00
2023-01-20T01:14:53.352Z,619.00
2023-01-20T01:15:23.471Z,618.00
2023-01-20T01:15:53.596Z,617.00
2023-01-20T01:16:23.886Z,616.00
2023-01-20T01:16:55.859Z,616.00
2023-01-20T01:17:23.843Z,616.00
2023-01-20T01:17:53.964Z,615.00
2023-01-20T01:18:24.060Z,616.00
2023-01-20T01:18:54.166Z,619.00
2023-01-20T01:19:24.285Z,618.00
2023-01-20T01:19:54.391Z,618.00
2023-01-20T01:20:24.458Z,620.00
2023-01-20T01:20:54.539Z,619.00
2023-01-20T01:21:24.621Z,619.00
2023-01-20T01:21:54.701Z,620.00
2023-01-20T01:22:24.761Z,621.00
2023-01-20T01:22:54.841Z,621.00
2023-01-20T01:23:24.913Z,620.00
2023-01-20T01:23:54.983Z,619.00
2023-01-20T01:24:25.059Z,618.00
2023-01-20T01:24:55.132Z,618.00
2023-01-20T01:25:25.232Z,617.00
2023-01-20T01:25:55.289Z,618.00
2023-01-20T01:26:25.356Z,617.00
2023-01-20T01:26:55.435Z,616.00
2023-01-20T01:27:25.504Z,617.00
2023-01-20T01:27:55.583Z,617.00
2023-01-20T01:28:25.661Z,618.00
2023-01-20T01:28:55.732Z,619.00
2023-01-20T01:29:25.809Z,620.00
2023-01-20T01:29:55.889Z,616.00
2023-01-20T01:30:26.035Z,616.00
2023-01-20T01:30:56.054Z,615.00
2023-01-20T01:31:26.122Z,616.00
2023-01-20T01:31:56.023Z,614.00
2023-01-20T01:32:26.136Z,615.00
2023-01-20T01:32:56.252Z,614.00
2023-01-20T01:33:26.364Z,615.00
2023-01-20T01:33:56.482Z,616.00
2023-01-20T01:34:26.589Z,617.00
2023-01-20T01:34:56.712Z,620.00
2023-01-20T01:35:26.806Z,619.00
2023-01-20T01:35:56.929Z,621.00
2023-01-20T01:36:27.046Z,622.00
2023-01-20T01:36:57.149Z,623.00
2023-01-20T01:37:27.261Z,621.00
2023-01-20T01:37:57.378Z,621.00
2023-01-20T01:38:27.493Z,620.00
2023-01-20T01:38:59.208Z,617.00
2023-01-20T01:39:27.663Z,615.00
2023-01-20T01:39:57.778Z,614.00
2023-01-20T01:40:27.911Z,611.00
2023-01-20T01:40:58.016Z,611.00
2023-01-20T01:41:28.123Z,611.00
2023-01-20T01:41:58.241Z,611.00
2023-01-20T01:42:28.358Z,612.00
2023-01-20T01:42:58.465Z,612.00
2023-01-20T01:43:28.587Z,611.00
2023-01-20T01:43:58.689Z,611.00
2023-01-20T01:44:28.806Z,611.00
2023-01-20T01:44:58.800Z,610.00
2023-01-20T01:45:28.963Z,610.00
2023-01-20T01:45:59.025Z,611.00
2023-01-20T01:46:28.994Z,610.00
2023-01-20T01:46:59.117Z,610.00
2023-01-20T01:47:29.112Z,612.00
2023-01-20T01:47:59.235Z,614.00
2023-01-20T01:48:29.342Z,613.00
2023-01-20T01:48:59.453Z,612.00
2023-01-20T01:49:29.562Z,613.00
2023-01-20T01:49:59.670Z,614.00
2023-01-20T01:50:29.791Z,612.00
2023-01-20T01:50:59.903Z,614.00
2023-01-20T01:51:30.013Z,614.00
2023-01-20T01:52:00.156Z,615.00
2023-01-20T01:52:30.245Z,615.00
2023-01-20T01:53:00.366Z,615.00
2023-01-20T01:53:30.351Z,613.00
2023-01-20T01:54:00.468Z,612.00
2023-01-20T01:54:30.584Z,611.00
2023-01-20T01:55:00.685Z,609.00
2023-01-20T01:55:30.917Z,610.00
2023-01-20T01:56:00.882Z,610.00
2023-01-20T01:56:30.989Z,610.00
2023-01-20T01:57:01.122Z,612.00
2023-01-20T01:57:31.218Z,612.00
2023-01-20T01:58:01.336Z,610.00
2023-01-20T01:58:31.322Z,608.00
2023-01-20T01:59:01.430Z,608.00
2023-01-20T01:59:31.555Z,609.00
2023-01-20T02:00:01.664Z,611.00
2023-01-20T02:00:31.816Z,609.00
2023-01-20T02:01:01.909Z,610.00
2023-01-20T02:01:31.964Z,610.00
2023-01-20T02:02:02.011Z,611.00
2023-01-20T02:02:32.074Z,613.00
2023-01-20T02:03:02.115Z,613.00
2023-01-20T02:03:32.095Z,613.00
2023-01-20T02:04:02.209Z,612.00
2023-01-20T02:04:32.326Z,614.00
2023-01-20T02:05:02.445Z,617.00
2023-01-20T02:05:32.579Z,617.00
2023-01-20T02:06:02.663Z,616.00
2023-01-20T02:06:32.774Z,617.00
2023-01-20T02:07:02.894Z,617.00
2023-01-20T02:07:33.008Z,618.00
2023-01-20T02:08:03.127Z,619.00
2023-01-20T02:08:33.232Z,618.00
2023-01-20T02:09:03.340Z,618.00
2023-01-20T02:09:33.451Z,618.00
2023-01-20T02:10:03.563Z,618.00
2023-01-20T02:10:33.693Z,616.00
2023-01-20T02:11:03.785Z,616.00
2023-01-20T02:11:33.898Z,612.00
2023-01-20T02:12:04.008Z,613.00
2023-01-20T02:12:34.120Z,611.00
2023-01-20T02:13:04.234Z,611.00
2023-01-20T02:13:34.343Z,610.00
2023-01-20T02:14:04.459Z,610.00
2023-01-20T02:14:34.564Z,610.00
2023-01-20T02:15:04.678Z,608.00
2023-01-20T02:15:34.789Z,607.00
2023-01-20T02:16:04.936Z,607.00
2023-01-20T02:16:34.974Z,606.00
2023-01-20T02:17:05.019Z,607.00
2023-01-20T02:17:35.004Z,606.00
2023-01-20T02:18:05.022Z,605.00
2023-01-20T02:18:35.133Z,605.00
2023-01-20T02:19:05.251Z,604.00
2023-01-20T02:19:35.364Z,602.00
2023-01-20T02:20:05.465Z,602.00
2023-01-20T02:20:35.545Z,601.00
2023-01-20T02:21:05.616Z,598.00
2023-01-20T02:21:35.678Z,600.00
2023-01-20T02:22:05.755Z,602.00
2023-01-20T02:22:35.834Z,602.00
2023-01-20T02:23:05.899Z,603.00
2023-01-20T02:23:35.967Z,604.00
2023-01-20T02:24:06.045Z,604.00
2023-01-20T02:24:36.116Z,603.00
2023-01-20T02:25:06.200Z,603.00
2023-01-20T02:25:36.288Z,606.00
2023-01-20T02:26:06.338Z,606.00
2023-01-20T02:26:36.414Z,608.00
2023-01-20T02:27:06.490Z,607.00
2023-01-20T02:27:36.568Z,606.00
2023-01-20T02:28:06.638Z,605.00
2023-01-20T02:28:36.707Z,606.00
2023-01-20T02:29:06.800Z,608.00
2023-01-20T02:29:36.885Z,609.00
2023-01-20T02:30:06.973Z,609.00
2023-01-20T02:30:37.220Z,609.00
2023-01-20T02:31:07.204Z,609.00
2023-01-20T02:31:37.409Z,607.00
2023-01-20T02:32:07.410Z,608.00
2023-01-20T02:32:37.517Z,607.00
2023-01-20T02:33:07.631Z,607.00
2023-01-20T02:33:37.748Z,606.00
2023-01-20T02:34:07.858Z,605.00
2023-01-20T02:34:37.968Z,603.00
2023-01-20T02:35:08.080Z,603.00
2023-01-20T02:35:38.186Z,603.00
2023-01-20T02:36:08.305Z,603.00
2023-01-20T02:36:38.409Z,604.00
2023-01-20T02:37:08.522Z,604.00
2023-01-20T02:37:38.642Z,604.00
2023-01-20T02:38:08.777Z,603.00
2023-01-20T02:38:38.748Z,603.00
2023-01-20T02:39:08.868Z,603.00
2023-01-20T02:39:38.974Z,602.00
2023-01-20T02:40:09.099Z,601.00
2023-01-20T02:40:39.123Z,602.00
2023-01-20T02:41:09.245Z,603.00
2023-01-20T02:41:39.330Z,602.00
2023-01-20T02:42:09.479Z,601.00
2023-01-20T02:42:39.500Z,600.00
2023-01-20T02:43:09.475Z,599.00
2023-01-20T02:43:39.592Z,598.00
2023-01-20T02:44:09.707Z,597.00
2023-01-20T02:44:39.828Z,598.00
2023-01-20T02:45:09.945Z,598.00
2023-01-20T02:45:40.068Z,597.00
2023-01-20T02:46:10.055Z,596.00
2023-01-20T02:46:40.164Z,596.00
2023-01-20T02:47:10.282Z,598.00
2023-01-20T02:47:40.397Z,597.00
2023-01-20T02:48:10.512Z,597.00
2023-01-20T02:48:40.616Z,599.00
2023-01-20T02:49:10.730Z,598.00
2023-01-20T02:49:40.846Z,601.00
2023-01-20T02:50:10.953Z,597.00
2023-01-20T02:50:41.062Z,598.00
2023-01-20T02:51:11.199Z,598.00
2023-01-20T02:51:41.296Z,596.00
2023-01-20T02:52:11.400Z,597.00
2023-01-20T02:52:41.524Z,597.00
2023-01-20T02:53:11.634Z,597.00
2023-01-20T02:53:41.746Z,596.00
2023-01-20T02:54:11.864Z,596.00
2023-01-20T02:54:41.969Z,599.00
2023-01-20T02:55:12.129Z,602.00
2023-01-20T02:55:42.137Z,601.00
2023-01-20T02:56:12.275Z,599.00
2023-01-20T02:56:42.377Z,599.00
2023-01-20T02:57:12.492Z,598.00
2023-01-20T02:57:42.600Z,598.00
2023-01-20T02:58:12.715Z,598.00
2023-01-20T02:58:42.827Z,598.00
2023-01-20T02:59:12.972Z,598.00
2023-01-20T02:59:43.058Z,595.00
2023-01-20T03:00:13.052Z,595.00
2023-01-20T03:00:43.168Z,596.00
2023-01-20T03:01:13.413Z,595.00
2023-01-20T03:01:43.426Z,595.00
2023-01-20T03:02:13.330Z,595.00
2023-01-20T03:02:43.435Z,595.00
2023-01-20T03:03:13.554Z,593.00
2023-01-20T03:03:43.706Z,591.00
2023-01-20T03:04:13.683Z,593.00
2023-01-20T03:04:43.787Z,591.00
2023-01-20T03:05:14.326Z,592.00
2023-01-20T03:05:44.057Z,590.00
2023-01-20T03:06:14.050Z,594.00
2023-01-20T03:06:44.170Z,597.00
2023-01-20T03:07:14.287Z,596.00
2023-01-20T03:07:44.390Z,596.00
2023-01-20T03:08:14.523Z,597.00
2023-01-20T03:08:44.621Z,597.00
2023-01-20T03:09:14.729Z,596.00
2023-01-20T03:09:44.842Z,596.00
2023-01-20T03:10:14.965Z,595.00
2023-01-20T03:10:45.075Z,597.00
2023-01-20T03:11:15.208Z,596.00
2023-01-20T03:11:45.302Z,593.00
2023-01-20T03:12:15.416Z,594.00
2023-01-20T03:12:45.533Z,593.00
2023-01-20T03:13:15.644Z,591.00
2023-01-20T03:13:45.769Z,591.00
2023-01-20T03:14:15.761Z,591.00
2023-01-20T03:14:45.870Z,591.00
2023-01-20T03:15:16.369Z,592.00
2023-01-20T03:15:46.023Z,592.00
2023-01-20T03:16:16.168Z,594.00
2023-01-20T03:16:46.150Z,594.00
2023-01-20T03:17:16.253Z,595.00
2023-01-20T03:17:46.359Z,593.00
2023-01-20T03:18:16.473Z,593.00
2023-01-20T03:18:46.590Z,592.00
2023-01-20T03:19:18.299Z,591.00
2023-01-20T03:19:46.693Z,590.00
2023-01-20T03:20:16.772Z,593.00
2023-01-20T03:20:46.853Z,592.00
2023-01-20T03:21:16.951Z,591.00
2023-01-20T03:21:46.993Z,590.00
2023-01-20T03:22:17.069Z,590.00
2023-01-20T03:22:47.139Z,591.00
2023-01-20T03:23:17.216Z,593.00
2023-01-20T03:23:47.288Z,595.00
2023-01-20T03:24:17.361Z,596.00
2023-01-20T03:24:47.437Z,596.00
2023-01-20T03:25:17.520Z,597.00
2023-01-20T03:25:47.584Z,597.00
2023-01-20T03:26:17.665Z,597.00
2023-01-20T03:26:47.777Z,595.00
2023-01-20T03:27:17.818Z,594.00
2023-01-20T03:27:47.886Z,594.00
2023-01-20T03:28:17.972Z,593.00
2023-01-20T03:28:48.031Z,593.00
2023-01-20T03:29:18.107Z,590.00
2023-01-20T03:29:48.175Z,590.00
2023-01-20T03:30:18.290Z,592.00
2023-01-20T03:30:48.503Z,594.00
2023-01-20T03:31:18.649Z,595.00
2023-01-20T03:31:48.587Z,594.00
2023-01-20T03:32:18.556Z,594.00
2023-01-20T03:32:48.670Z,594.00
2023-01-20T03:33:18.663Z,590.00
2023-01-20T03:33:48.783Z,591.00
2023-01-20T03:34:18.885Z,591.00
2023-01-20T03:34:49.000Z,591.00
2023-01-20T03:35:19.113Z,593.00
2023-01-20T03:35:49.242Z,593.00
2023-01-20T03:36:19.342Z,593.00
2023-01-20T03:36:49.464Z,590.00
2023-01-20T03:37:19.571Z,593.00
2023-01-20T03:37:49.696Z,594.00
2023-01-20T03:38:19.685Z,596.00
2023-01-20T03:38:49.703Z,597.00
2023-01-20T03:39:19.680Z,596.00
2023-01-20T03:39:49.800Z,595.00
2023-01-20T03:40:19.907Z,593.00
2023-01-20T03:40:50.020Z,595.00
2023-01-20T03:41:20.131Z,595.00
2023-01-20T03:41:50.267Z,595.00
2023-01-20T03:42:20.364Z,591.00
2023-01-20T03:42:50.533Z,591.00
2023-01-20T03:43:20.520Z,592.00
2023-01-20T03:43:50.631Z,594.00
2023-01-20T03:44:20.733Z,594.00
2023-01-20T03:44:50.854Z,596.00
2023-01-20T03:45:20.965Z,594.00
2023-01-20T03:45:51.084Z,594.00
2023-01-20T03:46:21.080Z,592.00
2023-01-20T03:46:51.182Z,592.00
2023-01-20T03:47:21.294Z,590.00
2023-01-20T03:47:51.427Z,593.00
2023-01-20T03:48:21.413Z,591.00
2023-01-20T03:48:51.549Z,590.00
2023-01-20T03:49:21.639Z,591.00
2023-01-20T03:49:51.659Z,590.00
2023-01-20T03:50:21.752Z,589.00
2023-01-20T03:50:51.863Z,589.00
2023-01-20T03:51:21.979Z,588.00
2023-01-20T03:51:52.091Z,587.00
2023-01-20T03:52:22.198Z,586.00
2023-01-20T03:52:52.335Z,586.00
2023-01-20T03:53:22.324Z,586.00
2023-01-20T03:53:52.438Z,584.00
2023-01-20T03:54:22.553Z,583.00
2023-01-20T03:54:52.669Z,585.00
2023-01-20T03:55:22.776Z,586.00
2023-01-20T03:55:52.895Z,587.00
2023-01-20T03:56:23.020Z,588.00
2023-01-20T03:56:53.148Z,585.00
2023-01-20T03:57:23.246Z,585.00
2023-01-20T03:57:53.393Z,584.00
2023-01-20T03:58:23.366Z,583.00
2023-01-20T03:58:53.485Z,584.00
2023-01-20T03:59:23.467Z,585.00
2023-01-20T03:59:53.582Z,583.00
2023-01-20T04:00:23.698Z,583.00
2023-01-20T04:00:53.835Z,581.00
2023-01-20T04:01:23.948Z,581.00
2023-01-20T04:01:54.092Z,583.00
2023-01-20T04:02:24.163Z,584.00
2023-01-20T04:02:54.119Z,584.00
2023-01-20T04:03:24.185Z,582.00
2023-01-20T04:03:54.167Z,582.00
2023-01-20T04:04:24.284Z,583.00
2023-01-20T04:04:54.395Z,584.00
2023-01-20T04:05:24.381Z,586.00
2023-01-20T04:05:54.500Z,587.00
2023-01-20T04:06:24.493Z,588.00
2023-01-20T04:06:54.603Z,587.00
2023-01-20T04:07:24.723Z,586.00
2023-01-20T04:07:54.855Z,587.00
2023-01-20T04:08:24.837Z,587.00
2023-01-20T04:08:56.766Z,588.00
2023-01-20T04:09:25.017Z,588.00
2023-01-20T04:09:55.138Z,587.00
2023-01-20T04:10:25.241Z,589.00
2023-01-20T04:10:55.365Z,591.00
2023-01-20T04:11:25.351Z,589.00
2023-01-20T04:11:55.488Z,589.00
2023-01-20T04:12:25.572Z,588.00
2023-01-20T04:12:55.699Z,586.00
2023-01-20T04:13:25.704Z,585.00
2023-01-20T04:13:55.819Z,586.00
2023-01-20T04:14:25.930Z,583.00
2023-01-20T04:14:56.053Z,585.00
2023-01-20T04:15:26.214Z,588.00
2023-01-20T04:15:56.313Z,587.00
2023-01-20T04:16:26.270Z,589.00
2023-01-20T04:16:56.391Z,586.00
2023-01-20T04:17:26.378Z,586.00
2023-01-20T04:17:56.509Z,585.00
2023-01-20T04:18:26.493Z,584.00
2023-01-20T04:18:56.610Z,584.00
2023-01-20T04:19:26.715Z,585.00
2023-01-20T04:19:56.815Z,583.00
2023-01-20T04:20:26.893Z,584.00
2023-01-20T04:20:56.971Z,583.00
2023-01-20T04:21:27.037Z,583.00
2023-01-20T04:21:57.113Z,582.00
2023-01-20T04:22:27.187Z,580.00
2023-01-20T04:22:57.279Z,580.00
2023-01-20T04:23:27.344Z,579.00
2023-01-20T04:23:57.419Z,581.00
2023-01-20T04:24:27.495Z,582.00
2023-01-20T04:24:57.570Z,583.00
2023-01-20T04:25:27.641Z,584.00
2023-01-20T04:25:57.732Z,584.00
2023-01-20T04:26:27.804Z,584.00
2023-01-20T04:26:57.869Z,585.00
2023-01-20T04:27:27.966Z,587.00
2023-01-20T04:27:58.022Z,588.00
2023-01-20T04:28:28.096Z,587.00
2023-01-20T04:28:58.170Z,585.00
2023-01-20T04:29:28.239Z,585.00
2023-01-20T04:29:58.324Z,584.00
2023-01-20T04:30:28.444Z,586.00
2023-01-20T04:30:58.707Z,587.00
2023-01-20T04:31:30.938Z,587.00
2023-01-20T04:31:58.700Z,586.00
2023-01-20T04:32:28.713Z,587.00
2023-01-20T04:32:58.828Z,587.00
2023-01-20T04:33:28.939Z,586.00
2023-01-20T04:33:59.066Z,586.00
2023-01-20T04:34:29.172Z,585.00
2023-01-20T04:34:59.279Z,585.00
2023-01-20T04:35:29.390Z,585.00
2023-01-20T04:35:59.509Z,586.00
2023-01-20T04:36:29.627Z,586.00
2023-01-20T04:36:59.629Z,585.00
2023-01-20T04:37:29.729Z,585.00
2023-01-20T04:37:59.846Z,585.00
2023-01-20T04:38:29.962Z,584.00
2023-01-20T04:39:00.082Z,584.00
2023-01-20T04:39:30.212Z,583.00
2023-01-20T04:40:00.212Z,581.00
2023-01-20T04:40:30.311Z,581.00
2023-01-20T04:41:03.389Z,581.00
2023-01-20T04:41:30.521Z,579.00
2023-01-20T04:42:00.637Z,577.00
2023-01-20T04:42:30.646Z,579.00
2023-01-20T04:43:00.742Z,579.00
2023-01-20T04:43:30.852Z,579.00
2023-01-20T04:44:00.972Z,578.00
2023-01-20T04:44:30.963Z,580.00
2023-01-20T04:45:01.071Z,581.00
2023-01-20T04:45:31.177Z,582.00
2023-01-20T04:46:01.294Z,580.00
2023-01-20T04:46:31.518Z,581.00
2023-01-20T04:47:01.552Z,582.00
2023-01-20T04:47:31.505Z,581.00
2023-01-20T04:48:01.618Z,583.00
2023-01-20T04:48:31.756Z,580.00
2023-01-20T04:49:01.745Z,578.00
2023-01-20T04:49:31.870Z,582.00
2023-01-20T04:50:01.969Z,583.00
2023-01-20T04:50:32.078Z,578.00
2023-01-20T04:51:02.192Z,577.00
2023-01-20T04:51:32.309Z,576.00
2023-01-20T04:52:02.313Z,574.00
2023-01-20T04:52:32.421Z,573.00
2023-01-20T04:53:02.533Z,570.00
2023-01-20T04:53:32.662Z,571.00
2023-01-20T04:54:02.652Z,572.00
2023-01-20T04:54:32.758Z,573.00
2023-01-20T04:55:02.884Z,573.00
2023-01-20T04:55:32.981Z,573.00
2023-01-20T04:56:03.096Z,572.00
2023-01-20T04:56:33.223Z,572.00
2023-01-20T04:57:03.317Z,571.00
2023-01-20T04:57:33.455Z,572.00
2023-01-20T04:58:03.540Z,572.00
2023-01-20T04:58:33.662Z,570.00
2023-01-20T04:59:03.660Z,571.00
2023-01-20T04:59:33.652Z,573.00
2023-01-20T05:00:03.765Z,574.00
2023-01-20T05:00:33.880Z,574.00
2023-01-20T05:01:04.041Z,576.00
2023-01-20T05:01:34.152Z,578.00
2023-01-20T05:02:04.125Z,580.00
2023-01-20T05:02:34.126Z,580.00
2023-01-20T05:03:04.126Z,579.00
2023-01-20T05:03:34.113Z,580.00
2023-01-20T05:04:04.120Z,579.00
2023-01-20T05:04:34.200Z,579.00
2023-01-20T05:05:04.329Z,579.00
2023-01-20T05:05:34.432Z,579.00
2023-01-20T05:06:04.538Z,578.00
2023-01-20T05:06:34.653Z,575.00
2023-01-20T05:07:04.762Z,574.00
2023-01-20T05:07:34.888Z,575.00
2023-01-20T05:08:04.878Z,575.00
2023-01-20T05:08:35.009Z,577.00
2023-01-20T05:09:04.999Z,577.00
2023-01-20T05:09:35.105Z,580.00
2023-01-20T05:10:05.111Z,581.00
2023-01-20T05:10:35.210Z,578.00
2023-01-20T05:11:05.331Z,579.00
2023-01-20T05:11:35.422Z,580.00
2023-01-20T05:12:05.549Z,582.00
2023-01-20T05:12:35.674Z,582.00
2023-01-20T05:13:05.768Z,584.00
2023-01-20T05:13:35.898Z,585.00
2023-01-20T05:14:05.871Z,585.00
2023-01-20T05:14:35.994Z,586.00
2023-01-20T05:15:06.106Z,587.00
2023-01-20T05:15:36.292Z,587.00
2023-01-20T05:16:06.377Z,587.00
2023-01-20T05:16:36.371Z,590.00
2023-01-20T05:17:06.473Z,586.00
2023-01-20T05:17:36.585Z,586.00
2023-01-20T05:18:06.693Z,586.00
2023-01-20T05:18:36.848Z,587.00
2023-01-20T05:19:06.805Z,586.00
2023-01-20T05:19:36.923Z,586.00
2023-01-20T05:20:07.045Z,588.00
2023-01-20T05:20:37.032Z,589.00
2023-01-20T05:21:07.145Z,590.00
2023-01-20T05:21:37.262Z,592.00
2023-01-20T05:22:07.374Z,590.00
2023-01-20T05:22:37.488Z,591.00
2023-01-20T05:23:07.600Z,593.00
2023-01-20T05:23:37.609Z,595.00
2023-01-20T05:24:07.589Z,594.00
2023-01-20T05:24:37.699Z,594.00
2023-01-20T05:25:07.820Z,594.00
2023-01-20T05:25:37.924Z,594.00
2023-01-20T05:26:08.039Z,598.00
2023-01-20T05:26:38.147Z,596.00
2023-01-20T05:27:08.266Z,596.00
2023-01-20T05:27:38.394Z,596.00
2023-01-20T05:28:08.492Z,595.00
2023-01-20T05:28:38.618Z,595.00
2023-01-20T05:29:08.601Z,596.00
2023-01-20T05:29:38.706Z,598.00
2023-01-20T05:30:08.729Z,600.00
2023-01-20T05:30:38.792Z,603.00
2023-01-20T05:31:08.972Z,604.00
2023-01-20T05:31:38.965Z,611.00
2023-01-20T05:32:08.919Z,612.00
2023-01-20T05:32:38.939Z,613.00
2023-01-20T05:33:08.967Z,612.00
2023-01-20T05:33:39.012Z,612.00
2023-01-20T05:34:09.039Z,612.00
2023-01-20T05:34:39.070Z,613.00
2023-01-20T05:35:09.093Z,616.00
2023-01-20T05:35:39.127Z,620.00
2023-01-20T05:36:09.141Z,621.00
2023-01-20T05:36:39.168Z,621.00
2023-01-20T05:37:09.190Z,620.00
2023-01-20T05:37:39.214Z,621.00
2023-01-20T05:38:09.240Z,622.00
2023-01-20T05:38:39.282Z,621.00
2023-01-20T05:39:09.306Z,624.00
2023-01-20T05:39:39.325Z,627.00
2023-01-20T05:40:09.374Z,632.00
2023-01-20T05:40:39.401Z,631.00
2023-01-20T05:41:09.451Z,634.00
2023-01-20T05:41:39.468Z,635.00
2023-01-20T05:42:09.516Z,634.00
2023-01-20T05:42:39.532Z,635.00
2023-01-20T05:43:11.135Z,635.00
2023-01-20T05:43:39.570Z,638.00
2023-01-20T05:44:09.588Z,640.00
2023-01-20T05:44:39.622Z,640.00
2023-01-20T05:45:09.650Z,640.00
2023-01-20T05:45:39.679Z,640.00
2023-01-20T05:46:09.763Z,639.00
2023-01-20T05:46:39.803Z,637.00
2023-01-20T05:47:09.810Z,637.00
2023-01-20T05:47:39.862Z,635.00
2023-01-20T05:48:09.883Z,634.00
2023-01-20T05:48:39.931Z,635.00
2023-01-20T05:49:09.956Z,637.00
2023-01-20T05:49:39.986Z,636.00
2023-01-20T05:50:10.016Z,637.00
2023-01-20T05:50:40.044Z,637.00
2023-01-20T05:51:10.074Z,635.00
2023-01-20T05:51:40.103Z,635.00
2023-01-20T05:52:10.135Z,635.00
2023-01-20T05:52:40.161Z,632.00
2023-01-20T05:53:10.189Z,627.00
2023-01-20T05:53:40.230Z,624.00
2023-01-20T05:54:10.255Z,623.00
2023-01-20T05:54:40.281Z,624.00
2023-01-20T05:55:10.303Z,620.00
2023-01-20T05:55:40.324Z,619.00
2023-01-20T05:56:10.356Z,616.00
2023-01-20T05:56:40.388Z,614.00
2023-01-20T05:57:10.420Z,611.00
2023-01-20T05:57:40.484Z,609.00
2023-01-20T05:58:10.531Z,608.00
2023-01-20T05:58:40.570Z,605.00
2023-01-20T05:59:10.604Z,603.00
2023-01-20T05:59:40.635Z,602.00
2023-01-20T06:00:10.691Z,601.00
2023-01-20T06:00:40.695Z,602.00
2023-01-20T06:01:10.900Z,602.00
2023-01-20T06:01:40.838Z,603.00
2023-01-20T06:02:10.854Z,600.00
2023-01-20T06:02:40.961Z,597.00
2023-01-20T06:03:10.868Z,594.00
2023-01-20T06:03:40.990Z,589.00
2023-01-20T06:04:10.909Z,588.00
2023-01-20T06:04:40.966Z,586.00
2023-01-20T06:05:10.975Z,585.00
2023-01-20T06:05:41.002Z,586.00
2023-01-20T06:06:11.028Z,585.00
2023-01-20T06:06:41.056Z,581.00
2023-01-20T06:07:11.083Z,578.00
2023-01-20T06:07:41.111Z,576.00
2023-01-20T06:08:11.179Z,574.00
2023-01-20T06:08:41.210Z,572.00
2023-01-20T06:09:11.236Z,571.00
2023-01-20T06:09:41.269Z,571.00
2023-01-20T06:10:11.300Z,569.00
2023-01-20T06:10:41.322Z,569.00
2023-01-20T06:11:11.352Z,569.00
2023-01-20T06:11:41.377Z,566.00
2023-01-20T06:12:11.402Z,567.00
2023-01-20T06:12:41.428Z,567.00
2023-01-20T06:13:11.452Z,565.00
2023-01-20T06:13:41.496Z,565.00
2023-01-20T06:14:11.560Z,564.00
2023-01-20T06:14:41.555Z,563.00
2023-01-20T06:15:11.582Z,564.00